sensor_id;sensor_type;location;lat;lon;timestamp;P1;durP1;ratioP1;P2;durP2;ratioP2
24729;SDS011;12832;52.392;13.066;2023-03-23T00:00:22;0.55;;;0.55;;
24729;SDS011;12832;52.392;13.066;2023-03-23T00:02:48;0.85;;;0.50;;
24729;SDS011;12832;52.392;13.066;2023-03-23T00:05:13;0.50;;;0.50;;
24729;SDS011;12832;52.392;13.066;2023-03-23T00:07:45;0.30;;;0.30;;
24729;SDS011;12832;52.392;13.066;2023-03-23T00:10:24;0.47;;;0.47;;
24729;SDS011;12832;52.392;13.066;2023-03-23T00:12:51;0.50;;;0.50;;
24729;SDS011;12832;52.392;13.066;2023-03-23T00:15:16;0.80;;;0.80;;
24729;SDS011;12832;52.392;13.066;2023-03-23T00:17:44;0.63;;;0.63;;
24729;SDS011;12832;52.392;13.066;2023-03-23T00:20:16;0.50;;;0.50;;
24729;SDS011;12832;52.392;13.066;2023-03-23T00:22:45;0.65;;;0.50;;
24729;SDS011;12832;52.392;13.066;2023-03-23T00:25:11;0.50;;;0.50;;
24729;SDS011;12832;52.392;13.066;2023-03-23T00:27:36;0.55;;;0.55;;
24729;SDS011;12832;52.392;13.066;2023-03-23T00:30:06;0.50;;;0.50;;
24729;SDS011;12832;52.392;13.066;2023-03-23T00:32:32;0.70;;;0.55;;
24729;SDS011;12832;52.392;13.066;2023-03-23T00:34:58;0.47;;;0.40;;
24729;SDS011;12832;52.392;13.066;2023-03-23T00:37:25;0.60;;;0.50;;
24729;SDS011;12832;52.392;13.066;2023-03-23T00:39:52;0.57;;;0.52;;
24729;SDS011;12832;52.392;13.066;2023-03-23T00:42:22;0.45;;;0.45;;
24729;SDS011;12832;52.392;13.066;2023-03-23T00:44:48;0.65;;;0.60;;
24729;SDS011;12832;52.392;13.066;2023-03-23T00:47:16;0.65;;;0.60;;
24729;SDS011;12832;52.392;13.066;2023-03-23T00:49:45;0.90;;;0.80;;
24729;SDS011;12832;52.392;13.066;2023-03-23T00:52:12;0.70;;;0.60;;
24729;SDS011;12832;52.392;13.066;2023-03-23T00:54:38;0.60;;;0.60;;
24729;SDS011;12832;52.392;13.066;2023-03-23T00:57:05;0.82;;;0.50;;
24729;SDS011;12832;52.392;13.066;2023-03-23T00:59:32;0.90;;;0.80;;
24729;SDS011;12832;52.392;13.066;2023-03-23T01:02:04;0.60;;;0.60;;
24729;SDS011;12832;52.392;13.066;2023-03-23T01:04:32;0.65;;;0.43;;
24729;SDS011;12832;52.392;13.066;2023-03-23T01:07:01;0.60;;;0.60;;
24729;SDS011;12832;52.392;13.066;2023-03-23T01:09:27;0.65;;;0.65;;
24729;SDS011;12832;52.392;13.066;2023-03-23T01:11:56;0.47;;;0.47;;
24729;SDS011;12832;52.392;13.066;2023-03-23T01:14:22;0.70;;;0.60;;
24729;SDS011;12832;52.392;13.066;2023-03-23T01:16:49;0.60;;;0.60;;
24729;SDS011;12832;52.392;13.066;2023-03-23T01:19:18;0.63;;;0.50;;
24729;SDS011;12832;52.392;13.066;2023-03-23T01:21:46;0.50;;;0.50;;
24729;SDS011;12832;52.392;13.066;2023-03-23T01:24:20;0.75;;;0.63;;
24729;SDS011;12832;52.392;13.066;2023-03-23T01:26:49;0.50;;;0.50;;
24729;SDS011;12832;52.392;13.066;2023-03-23T01:29:21;0.60;;;0.60;;
24729;SDS011;12832;52.392;13.066;2023-03-23T01:31:48;0.63;;;0.63;;
24729;SDS011;12832;52.392;13.066;2023-03-23T01:34:14;1.13;;;0.65;;
24729;SDS011;12832;52.392;13.066;2023-03-23T01:36:40;0.65;;;0.57;;
24729;SDS011;12832;52.392;13.066;2023-03-23T01:39:08;0.73;;;0.70;;
24729;SDS011;12832;52.392;13.066;2023-03-23T01:41:35;0.68;;;0.57;;
24729;SDS011;12832;52.392;13.066;2023-03-23T01:46:45;0.85;;;0.65;;
24729;SDS011;12832;52.392;13.066;2023-03-23T01:49:19;0.75;;;0.70;;
24729;SDS011;12832;52.392;13.066;2023-03-23T01:51:53;0.57;;;0.50;;
24729;SDS011;12832;52.392;13.066;2023-03-23T01:54:26;0.73;;;0.60;;
24729;SDS011;12832;52.392;13.066;2023-03-23T01:57:01;0.73;;;0.73;;
24729;SDS011;12832;52.392;13.066;2023-03-23T01:59:32;0.52;;;0.52;;
24729;SDS011;12832;52.392;13.066;2023-03-23T02:02:00;0.63;;;0.60;;
24729;SDS011;12832;52.392;13.066;2023-03-23T02:04:27;0.57;;;0.57;;
24729;SDS011;12832;52.392;13.066;2023-03-23T02:06:55;0.60;;;0.47;;
24729;SDS011;12832;52.392;13.066;2023-03-23T02:09:25;0.50;;;0.50;;
24729;SDS011;12832;52.392;13.066;2023-03-23T02:12:08;0.57;;;0.57;;
24729;SDS011;12832;52.392;13.066;2023-03-23T02:14:38;0.60;;;0.60;;
24729;SDS011;12832;52.392;13.066;2023-03-23T02:17:06;0.70;;;0.70;;
24729;SDS011;12832;52.392;13.066;2023-03-23T02:20:10;0.60;;;0.57;;
24729;SDS011;12832;52.392;13.066;2023-03-23T02:23:14;0.60;;;0.60;;
24729;SDS011;12832;52.392;13.066;2023-03-23T02:29:47;0.80;;;0.60;;
24729;SDS011;12832;52.392;13.066;2023-03-23T02:35:36;0.60;;;0.60;;
24729;SDS011;12832;52.392;13.066;2023-03-23T02:38:33;1.00;;;0.90;;
24729;SDS011;12832;52.392;13.066;2023-03-23T02:41:06;0.70;;;0.68;;
24729;SDS011;12832;52.392;13.066;2023-03-23T02:43:40;0.82;;;0.60;;
24729;SDS011;12832;52.392;13.066;2023-03-23T02:46:11;0.70;;;0.60;;
24729;SDS011;12832;52.392;13.066;2023-03-23T02:48:39;0.52;;;0.52;;
24729;SDS011;12832;52.392;13.066;2023-03-23T02:51:10;0.50;;;0.50;;
24729;SDS011;12832;52.392;13.066;2023-03-23T02:53:37;0.70;;;0.60;;
24729;SDS011;12832;52.392;13.066;2023-03-23T02:56:08;0.63;;;0.60;;
24729;SDS011;12832;52.392;13.066;2023-03-23T02:58:39;0.52;;;0.50;;
24729;SDS011;12832;52.392;13.066;2023-03-23T03:01:16;0.40;;;0.40;;
24729;SDS011;12832;52.392;13.066;2023-03-23T03:04:13;0.40;;;0.40;;
24729;SDS011;12832;52.392;13.066;2023-03-23T03:06:52;0.60;;;0.50;;
24729;SDS011;12832;52.392;13.066;2023-03-23T03:09:34;1.05;;;0.50;;
24729;SDS011;12832;52.392;13.066;2023-03-23T03:14:59;0.50;;;0.50;;
24729;SDS011;12832;52.392;13.066;2023-03-23T03:18:05;0.57;;;0.55;;
24729;SDS011;12832;52.392;13.066;2023-03-23T03:20:43;0.50;;;0.50;;
24729;SDS011;12832;52.392;13.066;2023-03-23T03:23:23;0.68;;;0.50;;
24729;SDS011;12832;52.392;13.066;2023-03-23T03:25:54;0.60;;;0.60;;
24729;SDS011;12832;52.392;13.066;2023-03-23T03:28:22;0.50;;;0.50;;
24729;SDS011;12832;52.392;13.066;2023-03-23T03:30:53;0.50;;;0.50;;
24729;SDS011;12832;52.392;13.066;2023-03-23T03:33:25;0.50;;;0.50;;
24729;SDS011;12832;52.392;13.066;2023-03-23T03:36:01;0.40;;;0.40;;
24729;SDS011;12832;52.392;13.066;2023-03-23T03:38:48;0.40;;;0.40;;
24729;SDS011;12832;52.392;13.066;2023-03-23T03:41:19;0.60;;;0.50;;
24729;SDS011;12832;52.392;13.066;2023-03-23T03:43:50;0.35;;;0.35;;
24729;SDS011;12832;52.392;13.066;2023-03-23T03:46:22;0.30;;;0.30;;
24729;SDS011;12832;52.392;13.066;2023-03-23T03:48:53;0.60;;;0.50;;
24729;SDS011;12832;52.392;13.066;2023-03-23T03:51:40;0.40;;;0.40;;
24729;SDS011;12832;52.392;13.066;2023-03-23T03:54:10;0.50;;;0.50;;
24729;SDS011;12832;52.392;13.066;2023-03-23T03:56:38;0.47;;;0.47;;
24729;SDS011;12832;52.392;13.066;2023-03-23T03:59:11;0.50;;;0.47;;
24729;SDS011;12832;52.392;13.066;2023-03-23T04:01:39;0.52;;;0.50;;
24729;SDS011;12832;52.392;13.066;2023-03-23T04:06:57;0.55;;;0.40;;
24729;SDS011;12832;52.392;13.066;2023-03-23T04:09:29;0.50;;;0.50;;
24729;SDS011;12832;52.392;13.066;2023-03-23T04:12:00;0.43;;;0.40;;
24729;SDS011;12832;52.392;13.066;2023-03-23T04:14:31;0.75;;;0.45;;
24729;SDS011;12832;52.392;13.066;2023-03-23T04:16:56;0.30;;;0.30;;
24729;SDS011;12832;52.392;13.066;2023-03-23T04:19:32;0.32;;;0.32;;
24729;SDS011;12832;52.392;13.066;2023-03-23T04:21:58;0.40;;;0.40;;
24729;SDS011;12832;52.392;13.066;2023-03-23T04:24:34;0.45;;;0.40;;
24729;SDS011;12832;52.392;13.066;2023-03-23T04:27:23;0.30;;;0.30;;
24729;SDS011;12832;52.392;13.066;2023-03-23T04:29:55;0.38;;;0.38;;
24729;SDS011;12832;52.392;13.066;2023-03-23T04:32:27;0.52;;;0.52;;
24729;SDS011;12832;52.392;13.066;2023-03-23T04:34:59;0.47;;;0.45;;
24729;SDS011;12832;52.392;13.066;2023-03-23T04:37:35;0.30;;;0.30;;
24729;SDS011;12832;52.392;13.066;2023-03-23T04:40:02;0.40;;;0.40;;
24729;SDS011;12832;52.392;13.066;2023-03-23T04:42:38;0.30;;;0.30;;
24729;SDS011;12832;52.392;13.066;2023-03-23T04:45:06;0.30;;;0.30;;
24729;SDS011;12832;52.392;13.066;2023-03-23T04:47:36;0.30;;;0.30;;
24729;SDS011;12832;52.392;13.066;2023-03-23T04:53:18;0.25;;;0.25;;
24729;SDS011;12832;52.392;13.066;2023-03-23T04:55:49;0.30;;;0.30;;
24729;SDS011;12832;52.392;13.066;2023-03-23T04:58:16;0.25;;;0.25;;
24729;SDS011;12832;52.392;13.066;2023-03-23T05:00:45;0.40;;;0.40;;
24729;SDS011;12832;52.392;13.066;2023-03-23T05:03:17;0.30;;;0.30;;
24729;SDS011;12832;52.392;13.066;2023-03-23T05:05:50;0.25;;;0.25;;
24729;SDS011;12832;52.392;13.066;2023-03-23T05:08:18;0.20;;;0.20;;
24729;SDS011;12832;52.392;13.066;2023-03-23T05:11:25;0.35;;;0.28;;
24729;SDS011;12832;52.392;13.066;2023-03-23T05:13:51;0.30;;;0.30;;
24729;SDS011;12832;52.392;13.066;2023-03-23T05:16:16;0.20;;;0.20;;
24729;SDS011;12832;52.392;13.066;2023-03-23T05:18:44;0.20;;;0.20;;
24729;SDS011;12832;52.392;13.066;2023-03-23T05:21:12;0.20;;;0.20;;
24729;SDS011;12832;52.392;13.066;2023-03-23T05:23:44;0.28;;;0.28;;
24729;SDS011;12832;52.392;13.066;2023-03-23T05:26:13;0.30;;;0.30;;
24729;SDS011;12832;52.392;13.066;2023-03-23T05:28:39;0.30;;;0.30;;
24729;SDS011;12832;52.392;13.066;2023-03-23T05:31:18;0.25;;;0.20;;
24729;SDS011;12832;52.392;13.066;2023-03-23T05:33:50;1.95;;;0.50;;
24729;SDS011;12832;52.392;13.066;2023-03-23T05:36:24;0.80;;;0.30;;
24729;SDS011;12832;52.392;13.066;2023-03-23T05:38:53;1.40;;;0.22;;
24729;SDS011;12832;52.392;13.066;2023-03-23T05:41:31;0.52;;;0.20;;
24729;SDS011;12832;52.392;13.066;2023-03-23T05:43:59;0.35;;;0.22;;
24729;SDS011;12832;52.392;13.066;2023-03-23T05:46:25;0.15;;;0.15;;
24729;SDS011;12832;52.392;13.066;2023-03-23T05:48:51;0.38;;;0.30;;
24729;SDS011;12832;52.392;13.066;2023-03-23T05:51:19;0.30;;;0.20;;
24729;SDS011;12832;52.392;13.066;2023-03-23T05:53:45;0.22;;;0.22;;
24729;SDS011;12832;52.392;13.066;2023-03-23T05:56:16;0.10;;;0.10;;
24729;SDS011;12832;52.392;13.066;2023-03-23T05:58:43;0.20;;;0.20;;
24729;SDS011;12832;52.392;13.066;2023-03-23T06:01:11;0.30;;;0.30;;
24729;SDS011;12832;52.392;13.066;2023-03-23T06:03:43;0.17;;;0.17;;
24729;SDS011;12832;52.392;13.066;2023-03-23T06:06:10;0.20;;;0.20;;
24729;SDS011;12832;52.392;13.066;2023-03-23T06:08:41;0.20;;;0.20;;
24729;SDS011;12832;52.392;13.066;2023-03-23T06:11:09;0.20;;;0.20;;
24729;SDS011;12832;52.392;13.066;2023-03-23T06:13:36;0.40;;;0.30;;
24729;SDS011;12832;52.392;13.066;2023-03-23T06:16:20;0.30;;;0.30;;
24729;SDS011;12832;52.392;13.066;2023-03-23T06:18:47;0.38;;;0.30;;
24729;SDS011;12832;52.392;13.066;2023-03-23T06:21:15;0.40;;;0.40;;
24729;SDS011;12832;52.392;13.066;2023-03-23T06:23:44;0.30;;;0.15;;
24729;SDS011;12832;52.392;13.066;2023-03-23T06:26:11;0.20;;;0.20;;
24729;SDS011;12832;52.392;13.066;2023-03-23T06:28:43;0.30;;;0.30;;
24729;SDS011;12832;52.392;13.066;2023-03-23T06:31:10;0.20;;;0.20;;
24729;SDS011;12832;52.392;13.066;2023-03-23T06:33:52;0.75;;;0.40;;
24729;SDS011;12832;52.392;13.066;2023-03-23T06:36:19;0.55;;;0.40;;
24729;SDS011;12832;52.392;13.066;2023-03-23T06:39:00;0.40;;;0.40;;
24729;SDS011;12832;52.392;13.066;2023-03-23T06:41:39;0.73;;;0.45;;
24729;SDS011;12832;52.392;13.066;2023-03-23T06:44:17;0.57;;;0.40;;
24729;SDS011;12832;52.392;13.066;2023-03-23T06:46:51;0.45;;;0.40;;
24729;SDS011;12832;52.392;13.066;2023-03-23T06:49:25;1.27;;;0.43;;
24729;SDS011;12832;52.392;13.066;2023-03-23T06:51:53;0.65;;;0.38;;
24729;SDS011;12832;52.392;13.066;2023-03-23T06:54:24;0.50;;;0.30;;
24729;SDS011;12832;52.392;13.066;2023-03-23T06:56:51;0.68;;;0.47;;
24729;SDS011;12832;52.392;13.066;2023-03-23T06:59:20;0.90;;;0.70;;
24729;SDS011;12832;52.392;13.066;2023-03-23T07:02:04;1.02;;;0.60;;
24729;SDS011;12832;52.392;13.066;2023-03-23T07:04:31;1.15;;;0.63;;
24729;SDS011;12832;52.392;13.066;2023-03-23T07:07:00;1.05;;;0.75;;
24729;SDS011;12832;52.392;13.066;2023-03-23T07:09:26;2.63;;;0.43;;
24729;SDS011;12832;52.392;13.066;2023-03-23T07:11:52;1.08;;;0.50;;
24729;SDS011;12832;52.392;13.066;2023-03-23T07:14:18;0.70;;;0.60;;
24729;SDS011;12832;52.392;13.066;2023-03-23T07:16:44;1.90;;;0.55;;
24729;SDS011;12832;52.392;13.066;2023-03-23T07:19:11;1.08;;;0.70;;
24729;SDS011;12832;52.392;13.066;2023-03-23T07:21:36;0.63;;;0.60;;
24729;SDS011;12832;52.392;13.066;2023-03-23T07:24:03;0.90;;;0.40;;
24729;SDS011;12832;52.392;13.066;2023-03-23T07:26:48;0.40;;;0.40;;
24729;SDS011;12832;52.392;13.066;2023-03-23T07:29:13;0.65;;;0.50;;
24729;SDS011;12832;52.392;13.066;2023-03-23T07:31:40;1.40;;;0.60;;
24729;SDS011;12832;52.392;13.066;2023-03-23T07:37:00;0.82;;;0.60;;
24729;SDS011;12832;52.392;13.066;2023-03-23T07:39:27;0.95;;;0.40;;
24729;SDS011;12832;52.392;13.066;2023-03-23T07:41:56;1.42;;;0.70;;
24729;SDS011;12832;52.392;13.066;2023-03-23T07:44:23;0.73;;;0.57;;
24729;SDS011;12832;52.392;13.066;2023-03-23T07:46:51;0.57;;;0.50;;
24729;SDS011;12832;52.392;13.066;2023-03-23T07:52:09;0.77;;;0.55;;
24729;SDS011;12832;52.392;13.066;2023-03-23T07:54:36;1.95;;;0.77;;
24729;SDS011;12832;52.392;13.066;2023-03-23T07:57:02;2.90;;;0.50;;
24729;SDS011;12832;52.392;13.066;2023-03-23T07:59:32;1.25;;;0.70;;
24729;SDS011;12832;52.392;13.066;2023-03-23T08:01:58;1.02;;;0.70;;
24729;SDS011;12832;52.392;13.066;2023-03-23T08:04:34;0.73;;;0.65;;
24729;SDS011;12832;52.392;13.066;2023-03-23T08:07:09;0.60;;;0.60;;
24729;SDS011;12832;52.392;13.066;2023-03-23T08:09:43;0.88;;;0.55;;
24729;SDS011;12832;52.392;13.066;2023-03-23T08:12:12;0.85;;;0.70;;
24729;SDS011;12832;52.392;13.066;2023-03-23T08:17:41;1.23;;;0.70;;
24729;SDS011;12832;52.392;13.066;2023-03-23T08:20:15;1.15;;;0.77;;
24729;SDS011;12832;52.392;13.066;2023-03-23T08:22:43;1.15;;;0.85;;
24729;SDS011;12832;52.392;13.066;2023-03-23T08:25:13;0.93;;;0.70;;
24729;SDS011;12832;52.392;13.066;2023-03-23T08:27:49;1.75;;;0.70;;
24729;SDS011;12832;52.392;13.066;2023-03-23T08:30:17;1.48;;;0.90;;
24729;SDS011;12832;52.392;13.066;2023-03-23T08:32:57;1.13;;;0.80;;
24729;SDS011;12832;52.392;13.066;2023-03-23T08:35:29;0.90;;;0.55;;
24729;SDS011;12832;52.392;13.066;2023-03-23T08:37:57;1.25;;;0.70;;
24729;SDS011;12832;52.392;13.066;2023-03-23T08:40:23;1.05;;;0.50;;
24729;SDS011;12832;52.392;13.066;2023-03-23T08:42:51;0.98;;;0.82;;
24729;SDS011;12832;52.392;13.066;2023-03-23T08:45:18;1.00;;;0.70;;
24729;SDS011;12832;52.392;13.066;2023-03-23T08:48:04;1.27;;;0.80;;
24729;SDS011;12832;52.392;13.066;2023-03-23T08:50:36;1.67;;;0.80;;
24729;SDS011;12832;52.392;13.066;2023-03-23T08:53:05;1.88;;;1.02;;
24729;SDS011;12832;52.392;13.066;2023-03-23T08:55:32;1.08;;;0.88;;
24729;SDS011;12832;52.392;13.066;2023-03-23T08:58:01;1.35;;;0.98;;
24729;SDS011;12832;52.392;13.066;2023-03-23T09:00:28;2.38;;;1.00;;
24729;SDS011;12832;52.392;13.066;2023-03-23T09:02:54;2.05;;;0.98;;
24729;SDS011;12832;52.392;13.066;2023-03-23T09:05:23;2.28;;;1.05;;
24729;SDS011;12832;52.392;13.066;2023-03-23T09:07:55;1.35;;;1.05;;
24729;SDS011;12832;52.392;13.066;2023-03-23T09:10:30;1.90;;;1.20;;
24729;SDS011;12832;52.392;13.066;2023-03-23T09:12:56;2.47;;;1.13;;
24729;SDS011;12832;52.392;13.066;2023-03-23T09:15:22;1.02;;;0.60;;
24729;SDS011;12832;52.392;13.066;2023-03-23T09:17:51;1.17;;;1.00;;
24729;SDS011;12832;52.392;13.066;2023-03-23T09:20:19;1.70;;;0.90;;
24729;SDS011;12832;52.392;13.066;2023-03-23T09:22:53;1.27;;;0.70;;
24729;SDS011;12832;52.392;13.066;2023-03-23T09:25:21;2.22;;;1.10;;
24729;SDS011;12832;52.392;13.066;2023-03-23T09:27:56;1.40;;;0.80;;
24729;SDS011;12832;52.392;13.066;2023-03-23T09:30:27;1.45;;;0.70;;
24729;SDS011;12832;52.392;13.066;2023-03-23T09:33:22;1.90;;;0.88;;
24729;SDS011;12832;52.392;13.066;2023-03-23T09:36:05;1.42;;;0.80;;
24729;SDS011;12832;52.392;13.066;2023-03-23T09:38:34;2.22;;;0.90;;
24729;SDS011;12832;52.392;13.066;2023-03-23T09:46:54;1.45;;;0.63;;
24729;SDS011;12832;52.392;13.066;2023-03-23T09:49:35;0.60;;;0.60;;
24729;SDS011;12832;52.392;13.066;2023-03-23T09:52:15;1.10;;;0.77;;
24729;SDS011;12832;52.392;13.066;2023-03-23T09:54:55;1.75;;;0.90;;
24729;SDS011;12832;52.392;13.066;2023-03-23T09:57:28;1.38;;;0.77;;
24729;SDS011;12832;52.392;13.066;2023-03-23T10:03:20;0.80;;;0.73;;
24729;SDS011;12832;52.392;13.066;2023-03-23T10:05:52;1.70;;;0.65;;
24729;SDS011;12832;52.392;13.066;2023-03-23T10:08:29;1.10;;;0.60;;
24729;SDS011;12832;52.392;13.066;2023-03-23T10:11:23;0.82;;;0.60;;
24729;SDS011;12832;52.392;13.066;2023-03-23T10:14:24;1.42;;;0.63;;
24729;SDS011;12832;52.392;13.066;2023-03-23T10:17:09;1.45;;;0.70;;
24729;SDS011;12832;52.392;13.066;2023-03-23T10:28:52;0.47;;;0.47;;
24729;SDS011;12832;52.392;13.066;2023-03-23T10:31:32;1.10;;;0.85;;
24729;SDS011;12832;52.392;13.066;2023-03-23T10:34:04;1.42;;;0.70;;
24729;SDS011;12832;52.392;13.066;2023-03-23T10:36:41;1.05;;;0.50;;
24729;SDS011;12832;52.392;13.066;2023-03-23T10:39:24;0.50;;;0.50;;
24729;SDS011;12832;52.392;13.066;2023-03-23T10:41:59;0.85;;;0.52;;
24729;SDS011;12832;52.392;13.066;2023-03-23T10:44:35;2.63;;;0.70;;
24729;SDS011;12832;52.392;13.066;2023-03-23T10:47:05;1.10;;;0.40;;
24729;SDS011;12832;52.392;13.066;2023-03-23T10:49:35;0.85;;;0.60;;
24729;SDS011;12832;52.392;13.066;2023-03-23T10:52:13;1.25;;;0.70;;
24729;SDS011;12832;52.392;13.066;2023-03-23T10:55:05;0.90;;;0.68;;
24729;SDS011;12832;52.392;13.066;2023-03-23T10:57:41;1.05;;;0.60;;
24729;SDS011;12832;52.392;13.066;2023-03-23T11:00:19;0.95;;;0.63;;
24729;SDS011;12832;52.392;13.066;2023-03-23T11:02:57;1.55;;;0.65;;
24729;SDS011;12832;52.392;13.066;2023-03-23T11:05:59;3.03;;;0.70;;
24729;SDS011;12832;52.392;13.066;2023-03-23T11:08:32;0.73;;;0.57;;
24729;SDS011;12832;52.392;13.066;2023-03-23T11:11:31;0.60;;;0.60;;
24729;SDS011;12832;52.392;13.066;2023-03-23T11:14:32;2.72;;;0.63;;
24729;SDS011;12832;52.392;13.066;2023-03-23T11:17:20;1.00;;;0.63;;
24729;SDS011;12832;52.392;13.066;2023-03-23T11:19:52;1.00;;;0.65;;
24729;SDS011;12832;52.392;13.066;2023-03-23T11:22:31;1.40;;;0.80;;
24729;SDS011;12832;52.392;13.066;2023-03-23T11:25:02;3.08;;;1.00;;
24729;SDS011;12832;52.392;13.066;2023-03-23T11:27:37;1.48;;;0.75;;
24729;SDS011;12832;52.392;13.066;2023-03-23T11:30:10;2.05;;;0.80;;
24729;SDS011;12832;52.392;13.066;2023-03-23T11:32:44;2.60;;;1.15;;
24729;SDS011;12832;52.392;13.066;2023-03-23T11:35:15;1.30;;;0.70;;
24729;SDS011;12832;52.392;13.066;2023-03-23T11:37:48;1.50;;;0.80;;
24729;SDS011;12832;52.392;13.066;2023-03-23T11:40:29;1.40;;;0.88;;
24729;SDS011;12832;52.392;13.066;2023-03-23T11:43:18;2.33;;;0.90;;
24729;SDS011;12832;52.392;13.066;2023-03-23T11:54:17;0.68;;;0.60;;
24729;SDS011;12832;52.392;13.066;2023-03-23T11:56:59;1.15;;;0.77;;
24729;SDS011;12832;52.392;13.066;2023-03-23T11:59:29;3.38;;;0.80;;
24729;SDS011;12832;52.392;13.066;2023-03-23T12:02:21;2.90;;;0.82;;
24729;SDS011;12832;52.392;13.066;2023-03-23T12:08:11;1.15;;;0.85;;
24729;SDS011;12832;52.392;13.066;2023-03-23T12:10:47;1.02;;;0.60;;
24729;SDS011;12832;52.392;13.066;2023-03-23T12:19:21;0.90;;;0.63;;
24729;SDS011;12832;52.392;13.066;2023-03-23T12:30:35;1.13;;;0.55;;
24729;SDS011;12832;52.392;13.066;2023-03-23T12:45:19;1.65;;;0.70;;
24729;SDS011;12832;52.392;13.066;2023-03-23T12:48:20;0.98;;;0.60;;
24729;SDS011;12832;52.392;13.066;2023-03-23T12:51:08;1.35;;;0.80;;
24729;SDS011;12832;52.392;13.066;2023-03-23T12:53:57;0.93;;;0.70;;
24729;SDS011;12832;52.392;13.066;2023-03-23T12:59:44;0.85;;;0.65;;
24729;SDS011;12832;52.392;13.066;2023-03-23T13:02:51;2.22;;;0.95;;
24729;SDS011;12832;52.392;13.066;2023-03-23T13:05:35;2.25;;;0.70;;
24729;SDS011;12832;52.392;13.066;2023-03-23T13:08:13;1.20;;;0.55;;
24729;SDS011;12832;52.392;13.066;2023-03-23T13:10:55;1.02;;;0.70;;
24729;SDS011;12832;52.392;13.066;2023-03-23T13:14:11;4.72;;;0.90;;
24729;SDS011;12832;52.392;13.066;2023-03-23T13:19:10;1.02;;;0.73;;
24729;SDS011;12832;52.392;13.066;2023-03-23T13:24:36;1.77;;;0.80;;
24729;SDS011;12832;52.392;13.066;2023-03-23T13:27:16;1.10;;;0.60;;
24729;SDS011;12832;52.392;13.066;2023-03-23T13:29:43;0.90;;;0.63;;
24729;SDS011;12832;52.392;13.066;2023-03-23T13:35:11;0.57;;;0.55;;
24729;SDS011;12832;52.392;13.066;2023-03-23T13:37:46;2.13;;;0.70;;
24729;SDS011;12832;52.392;13.066;2023-03-23T13:40:18;0.80;;;0.68;;
24729;SDS011;12832;52.392;13.066;2023-03-23T13:42:58;1.10;;;0.77;;
24729;SDS011;12832;52.392;13.066;2023-03-23T13:50:44;0.88;;;0.60;;
24729;SDS011;12832;52.392;13.066;2023-03-23T13:53:28;1.48;;;0.50;;
24729;SDS011;12832;52.392;13.066;2023-03-23T13:59:35;1.00;;;0.70;;
24729;SDS011;12832;52.392;13.066;2023-03-23T14:11:00;1.10;;;0.68;;
24729;SDS011;12832;52.392;13.066;2023-03-23T14:16:43;1.42;;;0.70;;
24729;SDS011;12832;52.392;13.066;2023-03-23T14:19:50;0.93;;;0.65;;
24729;SDS011;12832;52.392;13.066;2023-03-23T14:22:27;1.25;;;0.60;;
24729;SDS011;12832;52.392;13.066;2023-03-23T14:25:21;0.52;;;0.52;;
24729;SDS011;12832;52.392;13.066;2023-03-23T14:27:51;1.15;;;0.95;;
24729;SDS011;12832;52.392;13.066;2023-03-23T14:30:21;0.98;;;0.82;;
24729;SDS011;12832;52.392;13.066;2023-03-23T14:33:02;1.35;;;0.70;;
24729;SDS011;12832;52.392;13.066;2023-03-23T14:35:35;2.70;;;0.70;;
24729;SDS011;12832;52.392;13.066;2023-03-23T14:38:04;1.15;;;0.60;;
24729;SDS011;12832;52.392;13.066;2023-03-23T14:40:43;1.48;;;0.90;;
24729;SDS011;12832;52.392;13.066;2023-03-23T14:43:10;1.60;;;0.60;;
24729;SDS011;12832;52.392;13.066;2023-03-23T14:45:38;1.33;;;0.90;;
24729;SDS011;12832;52.392;13.066;2023-03-23T14:48:05;1.58;;;0.82;;
24729;SDS011;12832;52.392;13.066;2023-03-23T14:50:51;0.63;;;0.60;;
24729;SDS011;12832;52.392;13.066;2023-03-23T14:53:22;1.52;;;0.88;;
24729;SDS011;12832;52.392;13.066;2023-03-23T14:55:53;1.08;;;0.70;;
24729;SDS011;12832;52.392;13.066;2023-03-23T14:58:45;1.80;;;0.77;;
24729;SDS011;12832;52.392;13.066;2023-03-23T15:01:20;1.63;;;1.10;;
24729;SDS011;12832;52.392;13.066;2023-03-23T15:04:10;1.27;;;0.70;;
24729;SDS011;12832;52.392;13.066;2023-03-23T15:07:05;1.52;;;0.70;;
24729;SDS011;12832;52.392;13.066;2023-03-23T15:09:33;1.00;;;0.73;;
24729;SDS011;12832;52.392;13.066;2023-03-23T15:12:04;0.82;;;0.68;;
24729;SDS011;12832;52.392;13.066;2023-03-23T15:14:37;1.45;;;0.60;;
24729;SDS011;12832;52.392;13.066;2023-03-23T15:17:27;1.33;;;0.70;;
24729;SDS011;12832;52.392;13.066;2023-03-23T15:19:55;0.90;;;0.73;;
24729;SDS011;12832;52.392;13.066;2023-03-23T15:22:22;0.90;;;0.73;;
24729;SDS011;12832;52.392;13.066;2023-03-23T15:25:10;0.60;;;0.60;;
24729;SDS011;12832;52.392;13.066;2023-03-23T15:27:42;0.80;;;0.68;;
24729;SDS011;12832;52.392;13.066;2023-03-23T15:32:52;0.80;;;0.60;;
24729;SDS011;12832;52.392;13.066;2023-03-23T15:35:21;1.42;;;0.77;;
24729;SDS011;12832;52.392;13.066;2023-03-23T15:38:03;0.98;;;0.68;;
24729;SDS011;12832;52.392;13.066;2023-03-23T15:40:37;1.02;;;0.70;;
24729;SDS011;12832;52.392;13.066;2023-03-23T15:45:56;0.93;;;0.70;;
24729;SDS011;12832;52.392;13.066;2023-03-23T15:48:52;1.20;;;0.82;;
24729;SDS011;12832;52.392;13.066;2023-03-23T15:51:27;0.90;;;0.63;;
24729;SDS011;12832;52.392;13.066;2023-03-23T15:54:07;1.20;;;0.60;;
24729;SDS011;12832;52.392;13.066;2023-03-23T15:56:38;1.00;;;0.73;;
24729;SDS011;12832;52.392;13.066;2023-03-23T16:01:55;1.13;;;0.70;;
24729;SDS011;12832;52.392;13.066;2023-03-23T16:04:24;0.82;;;0.70;;
24729;SDS011;12832;52.392;13.066;2023-03-23T16:06:51;0.70;;;0.60;;
24729;SDS011;12832;52.392;13.066;2023-03-23T16:09:20;0.90;;;0.60;;
24729;SDS011;12832;52.392;13.066;2023-03-23T16:11:46;1.70;;;0.70;;
24729;SDS011;12832;52.392;13.066;2023-03-23T16:14:13;0.40;;;0.40;;
24729;SDS011;12832;52.392;13.066;2023-03-23T16:16:43;0.57;;;0.43;;
24729;SDS011;12832;52.392;13.066;2023-03-23T16:19:20;0.40;;;0.40;;
24729;SDS011;12832;52.392;13.066;2023-03-23T16:21:52;0.40;;;0.40;;
24729;SDS011;12832;52.392;13.066;2023-03-23T16:24:18;0.60;;;0.40;;
24729;SDS011;12832;52.392;13.066;2023-03-23T16:26:44;0.60;;;0.50;;
24729;SDS011;12832;52.392;13.066;2023-03-23T16:29:13;0.95;;;0.68;;
24729;SDS011;12832;52.392;13.066;2023-03-23T16:32:11;0.57;;;0.40;;
24729;SDS011;12832;52.392;13.066;2023-03-23T16:34:39;0.57;;;0.40;;
24729;SDS011;12832;52.392;13.066;2023-03-23T16:37:05;0.95;;;0.40;;
24729;SDS011;12832;52.392;13.066;2023-03-23T16:39:31;0.80;;;0.40;;
24729;SDS011;12832;52.392;13.066;2023-03-23T16:41:58;0.40;;;0.40;;
24729;SDS011;12832;52.392;13.066;2023-03-23T16:44:25;0.30;;;0.30;;
24729;SDS011;12832;52.392;13.066;2023-03-23T16:46:51;0.68;;;0.30;;
24729;SDS011;12832;52.392;13.066;2023-03-23T16:49:22;0.40;;;0.40;;
24729;SDS011;12832;52.392;13.066;2023-03-23T16:51:48;0.43;;;0.40;;
24729;SDS011;12832;52.392;13.066;2023-03-23T16:54:14;0.47;;;0.40;;
24729;SDS011;12832;52.392;13.066;2023-03-23T16:56:43;0.30;;;0.30;;
24729;SDS011;12832;52.392;13.066;2023-03-23T16:59:18;0.40;;;0.40;;
24729;SDS011;12832;52.392;13.066;2023-03-23T17:01:47;0.30;;;0.30;;
24729;SDS011;12832;52.392;13.066;2023-03-23T17:04:15;0.63;;;0.40;;
24729;SDS011;12832;52.392;13.066;2023-03-23T17:06:41;0.52;;;0.40;;
24729;SDS011;12832;52.392;13.066;2023-03-23T17:09:08;0.52;;;0.38;;
24729;SDS011;12832;52.392;13.066;2023-03-23T17:11:34;0.50;;;0.45;;
24729;SDS011;12832;52.392;13.066;2023-03-23T17:14:00;0.43;;;0.40;;